Time;durP1;ratioP1;P1;durP2;ratioP2;P2;SDS_P1;SDS_P2;PMS_P1;PMS_P2;Temp;Humidity;BMP_temperature;BMP_pressure;BME280_temperature;BME280_humidity;BME280_pressure;Samples;Min_cycle;Max_cycle;Signal;HPM_P1;HPM_P2
2021/03/10 00:00:20;;;;;;;37.77;21.60;;;4.10;95.30;;;;;;4993148;28;20398;-82
2021/03/10 00:02:46;;;;;;;32.22;19.60;;;4.10;95.30;;;;;;4993824;28;20375;-82
2021/03/10 00:05:12;;;;;;;36.38;21.13;;;4.10;95.20;;;;;;4992607;28;20767;-82
2021/03/10 00:07:38;;;;;;;41.55;23.30;;;4.20;95.00;;;;;;4991991;28;20395;-82
2021/03/10 00:10:06;;;;;;;37.05;21.38;;;4.10;95.20;;;;;;4992628;28;20391;-82
2021/03/10 00:12:32;;;;;;;40.90;23.30;;;4.10;95.10;;;;;;4992240;28;20405;-82
2021/03/10 00:14:58;;;;;;;37.03;22.10;;;4.20;95.20;;;;;;4992235;28;20387;-82
2021/03/10 00:17:23;;;;;;;37.67;22.17;;;4.10;95.30;;;;;;5008167;28;20391;-82
2021/03/10 00:19:49;;;;;;;42.85;23.60;;;4.20;95.20;;;;;;4993902;28;20383;-81
2021/03/10 00:22:15;;;;;;;41.25;23.38;;;4.10;95.20;;;;;;4993394;28;20421;-82
2021/03/10 00:24:40;;;;;;;50.22;25.55;;;4.10;95.10;;;;;;4993471;28;20393;-82
2021/03/10 00:27:06;;;;;;;35.30;20.95;;;4.10;95.20;;;;;;4991723;28;20410;-82
2021/03/10 00:29:31;;;;;;;38.85;21.58;;;4.10;94.80;;;;;;4991923;28;20464;-82
2021/03/10 00:31:57;;;;;;;39.97;21.90;;;4.10;94.80;;;;;;4992003;28;20496;-82
2021/03/10 00:34:23;;;;;;;40.45;22.63;;;4.10;94.60;;;;;;5008206;28;20397;-82
2021/03/10 00:36:48;;;;;;;37.03;21.75;;;4.10;94.60;;;;;;5008094;28;20811;-82
2021/03/10 00:39:14;;;;;;;35.38;21.02;;;4.10;94.90;;;;;;4991590;28;20430;-82
2021/03/10 00:41:39;;;;;;;42.63;23.67;;;4.10;94.60;;;;;;4993137;28;20466;-82
2021/03/10 00:44:05;;;;;;;41.20;23.92;;;4.10;94.80;;;;;;4992795;28;20398;-82
2021/03/10 00:46:31;;;;;;;41.17;22.77;;;4.10;94.70;;;;;;4992655;28;20410;-82
2021/03/10 00:48:56;;;;;;;34.63;21.10;;;4.10;95.00;;;;;;4991773;28;20876;-82
2021/03/10 00:51:22;;;;;;;34.93;21.23;;;4.10;95.10;;;;;;4991432;28;20395;-82
2021/03/10 00:53:47;;;;;;;40.43;21.87;;;4.10;94.80;;;;;;4992721;28;20550;-82
2021/03/10 00:56:13;;;;;;;35.92;21.63;;;4.10;94.70;;;;;;4992550;28;20859;-81
2021/03/10 00:58:38;;;;;;;37.13;21.35;;;4.00;95.10;;;;;;4991321;28;20487;-82
2021/03/10 01:01:17;;;;;;;36.25;21.45;;;4.00;95.10;;;;;;4993333;28;20389;-82
2021/03/10 01:03:42;;;;;;;32.83;20.30;;;3.90;95.20;;;;;;4992216;28;20387;-82
2021/03/10 01:06:08;;;;;;;32.47;20.47;;;3.90;95.30;;;;;;4992901;28;20553;-82
2021/03/10 01:08:33;;;;;;;34.30;20.97;;;3.90;95.10;;;;;;5006547;28;20867;-82
2021/03/10 01:10:59;;;;;;;34.63;20.70;;;3.90;95.20;;;;;;5007797;28;20391;-82
2021/03/10 01:13:24;;;;;;;34.30;20.67;;;3.80;95.50;;;;;;4992313;28;20390;-82
2021/03/10 01:15:50;;;;;;;38.93;22.60;;;3.80;95.30;;;;;;4991121;28;20466;-82
2021/03/10 01:18:15;;;;;;;39.53;21.67;;;3.90;95.60;;;;;;4992089;28;20848;-82
2021/03/10 01:20:41;;;;;;;37.60;22.20;;;3.80;95.70;;;;;;4992366;28;20397;-83
2021/03/10 01:23:06;;;;;;;40.00;22.80;;;3.80;95.70;;;;;;4992560;28;20375;-82
2021/03/10 01:25:32;;;;;;;46.58;24.27;;;3.90;95.70;;;;;;4992154;28;20899;-82
2021/03/10 01:27:57;;;;;;;40.92;23.17;;;3.90;95.50;;;;;;4992386;28;20402;-82
2021/03/10 01:30:23;;;;;;;43.13;23.65;;;3.90;95.30;;;;;;4990757;28;20473;-82
2021/03/10 01:32:49;;;;;;;44.65;23.88;;;3.70;95.10;;;;;;5007204;28;20398;-81
2021/03/10 01:35:14;;;;;;;52.42;23.80;;;3.70;95.10;;;;;;4992035;28;20402;-82
2021/03/10 01:37:40;;;;;;;55.13;26.48;;;3.60;95.20;;;;;;4990472;28;20395;-82
2021/03/10 01:40:09;;;;;;;54.42;25.48;;;3.60;95.30;;;;;;4990649;28;20433;-82
2021/03/10 01:42:36;;;;;;;56.90;26.95;;;3.50;95.10;;;;;;4992185;28;20390;-82
2021/03/10 01:45:04;;;;;;;60.08;27.67;;;3.50;95.40;;;;;;4991759;28;20401;-82
2021/03/10 01:47:29;;;;;;;66.68;28.98;;;3.60;95.50;;;;;;5006373;28;20426;-82
2021/03/10 01:49:55;;;;;;;57.67;27.20;;;3.50;95.10;;;;;;4991793;28;20422;-82
2021/03/10 01:52:21;;;;;;;66.57;29.03;;;3.50;95.00;;;;;;4991692;28;20478;-82
2021/03/10 01:54:46;;;;;;;71.20;31.30;;;3.50;94.80;;;;;;4990628;28;20449;-82
2021/03/10 01:57:12;;;;;;;70.43;30.00;;;3.50;94.90;;;;;;4991331;28;20449;-82
2021/03/10 01:59:37;;;;;;;83.23;33.60;;;3.60;94.90;;;;;;4991565;28;20856;-82
2021/03/10 02:02:03;;;;;;;89.20;35.17;;;3.60;95.00;;;;;;4990503;28;20402;-83
2021/03/10 02:04:28;;;;;;;81.87;34.70;;;3.60;94.70;;;;;;4991715;28;20391;-82
2021/03/10 02:07:30;;;;;;;78.27;33.30;;;3.70;94.40;;;;;;4990856;28;20830;-82
2021/03/10 02:10:01;;;;;;;80.90;33.53;;;3.60;94.40;;;;;;4997548;28;20473;-82
2021/03/10 02:12:42;;;;;;;86.85;34.88;;;3.70;94.40;;;;;;4990680;28;20418;-82
2021/03/10 02:15:14;;;;;;;83.55;34.03;;;3.70;94.20;;;;;;4990208;28;20405;-82
2021/03/10 02:17:48;;;;;;;84.28;34.58;;;3.70;94.00;;;;;;4991226;28;20878;-82
2021/03/10 02:20:23;;;;;;;76.07;32.90;;;3.60;94.70;;;;;;4990434;28;20375;-82
2021/03/10 02:23:07;;;;;;;105.23;39.10;;;3.70;94.50;;;;;;4991680;28;20378;-82
2021/03/10 02:25:57;;;;;;;93.25;35.25;;;3.70;94.20;;;;;;4991517;28;20409;-82
2021/03/10 02:28:24;;;;;;;110.05;40.60;;;3.70;94.10;;;;;;4989402;28;20449;-81
2021/03/10 02:30:54;;;;;;;107.63;40.05;;;3.70;94.40;;;;;;4990119;28;20391;-82
2021/03/10 02:33:29;;;;;;;93.43;36.55;;;3.70;94.20;;;;;;4989913;28;20427;-82
2021/03/10 02:36:04;;;;;;;110.57;40.78;;;3.70;93.90;;;;;;4991180;28;20514;-82
2021/03/10 02:38:30;;;;;;;104.22;38.97;;;3.70;94.40;;;;;;4990840;28;20379;-82
2021/03/10 02:40:56;;;;;;;103.70;38.07;;;3.70;94.50;;;;;;4989849;28;20387;-82
2021/03/10 02:43:24;;;;;;;91.35;35.08;;;3.60;94.80;;;;;;5006308;28;20482;-82
2021/03/10 02:45:51;;;;;;;91.57;36.33;;;3.70;94.40;;;;;;4989409;28;20410;-82
2021/03/10 02:48:17;;;;;;;84.10;33.83;;;3.70;94.40;;;;;;5006038;28;20880;-82
2021/03/10 02:50:44;;;;;;;91.57;34.80;;;3.70;94.60;;;;;;4989554;28;20780;-82
2021/03/10 02:53:10;;;;;;;81.30;32.30;;;3.60;94.80;;;;;;4989624;28;20395;-82
2021/03/10 02:55:38;;;;;;;70.30;31.33;;;3.60;95.10;;;;;;4989360;28;20491;-82
2021/03/10 02:58:05;;;;;;;59.78;27.90;;;3.70;95.10;;;;;;4990609;28;20427;-81
2021/03/10 03:00:31;;;;;;;62.08;27.10;;;3.70;95.10;;;;;;5005865;28;20430;-82
2021/03/10 03:02:57;;;;;;;59.28;28.33;;;3.70;95.00;;;;;;4990923;28;20417;-82
2021/03/10 03:05:22;;;;;;;57.90;27.65;;;3.70;95.30;;;;;;4990833;28;20468;-82
2021/03/10 03:07:49;;;;;;;57.23;27.23;;;3.70;95.30;;;;;;4990339;28;20760;-82
2021/03/10 03:10:27;;;;;;;53.55;25.75;;;3.70;95.30;;;;;;4990417;28;20394;-82
2021/03/10 03:12:54;;;;;;;65.13;28.40;;;3.70;95.20;;;;;;5005502;28;20394;-82
2021/03/10 03:15:23;;;;;;;55.05;27.58;;;3.70;95.30;;;;;;5005874;28;20445;-82
2021/03/10 03:17:49;;;;;;;63.13;27.42;;;3.70;95.40;;;;;;4988597;28;20927;-82
2021/03/10 03:20:17;;;;;;;54.07;27.20;;;3.70;95.50;;;;;;4991087;28;20394;-81
2021/03/10 03:22:52;;;;;;;56.55;27.25;;;3.70;95.50;;;;;;4990391;28;20391;-82
2021/03/10 03:25:26;;;;;;;53.45;26.63;;;3.70;95.50;;;;;;4989516;28;20418;-82
2021/03/10 03:27:58;;;;;;;55.67;28.35;;;3.70;95.30;;;;;;5004863;28;20830;-82
2021/03/10 03:30:24;;;;;;;55.45;27.45;;;3.60;95.40;;;;;;4991354;28;20411;-82
2021/03/10 03:32:53;;;;;;;56.40;26.05;;;3.70;95.20;;;;;;4992851;28;20394;-82
2021/03/10 03:35:19;;;;;;;58.78;27.77;;;3.70;95.20;;;;;;4994056;28;20903;-82
2021/03/10 03:37:48;;;;;;;51.70;25.58;;;3.60;95.40;;;;;;4992652;28;20387;-82
2021/03/10 03:40:15;;;;;;;47.93;25.93;;;3.60;95.10;;;;;;5009096;28;20407;-82
2021/03/10 03:42:40;;;;;;;57.75;27.33;;;3.60;95.40;;;;;;5009737;28;20672;-82
2021/03/10 03:45:07;;;;;;;56.08;26.98;;;3.60;95.40;;;;;;4992728;28;20446;-82
2021/03/10 03:47:34;;;;;;;54.88;27.25;;;3.50;95.40;;;;;;4993845;28;20497;-82
2021/03/10 03:49:59;;;;;;;54.78;26.90;;;3.50;95.60;;;;;;4993778;28;20394;-82
2021/03/10 03:52:25;;;;;;;51.13;25.87;;;3.50;95.50;;;;;;4993119;28;20387;-82
2021/03/10 03:54:50;;;;;;;49.87;25.83;;;3.40;95.40;;;;;;5008887;28;20391;-82
2021/03/10 03:57:16;;;;;;;48.33;26.23;;;3.50;95.40;;;;;;4992464;28;20421;-82
2021/03/10 03:59:41;;;;;;;55.10;26.73;;;3.50;95.20;;;;;;4993506;28;20747;-82
2021/03/10 04:02:07;;;;;;;58.30;28.13;;;3.40;95.20;;;;;;4993462;28;20480;-82
2021/03/10 04:04:33;;;;;;;52.33;25.90;;;3.40;95.30;;;;;;5008980;28;20481;-81
2021/03/10 04:06:59;;;;;;;62.93;28.77;;;3.40;95.10;;;;;;4993075;28;20419;-82
2021/03/10 04:09:25;;;;;;;59.40;28.35;;;3.40;94.90;;;;;;5008868;28;20505;-82
2021/03/10 04:11:51;;;;;;;54.67;26.80;;;3.40;95.30;;;;;;4993593;28;20923;-82
2021/03/10 04:14:17;;;;;;;59.23;29.97;;;3.20;95.10;;;;;;4993702;28;20776;-82
2021/03/10 04:16:43;;;;;;;57.15;27.08;;;3.20;95.30;;;;;;4993183;28;20386;-82
2021/03/10 04:19:09;;;;;;;53.10;27.95;;;3.20;95.50;;;;;;4993591;28;20383;-82
2021/03/10 04:21:35;;;;;;;59.22;29.85;;;3.30;95.30;;;;;;4993311;28;20393;-82
2021/03/10 04:24:01;;;;;;;63.55;29.92;;;3.20;95.20;;;;;;5008207;28;20736;-81
2021/03/10 04:26:27;;;;;;;60.50;29.10;;;3.20;95.30;;;;;;4992704;28;20422;-82
2021/03/10 04:28:53;;;;;;;58.40;28.65;;;3.20;95.60;;;;;;5008111;28;20498;-82
2021/03/10 04:31:19;;;;;;;65.00;30.00;;;3.10;95.50;;;;;;4991887;28;20397;-82
2021/03/10 04:33:45;;;;;;;61.35;29.52;;;3.20;95.70;;;;;;4993308;28;20387;-82
2021/03/10 04:36:11;;;;;;;68.13;31.08;;;3.20;95.40;;;;;;4993450;28;20449;-82
2021/03/10 04:38:36;;;;;;;67.97;30.42;;;3.20;95.70;;;;;;5007731;28;20440;-81
2021/03/10 04:41:03;;;;;;;62.60;29.77;;;3.20;95.70;;;;;;4992083;28;20394;-82
2021/03/10 04:43:28;;;;;;;63.92;31.40;;;3.20;95.80;;;;;;4992336;28;20390;-82
2021/03/10 04:45:54;;;;;;;73.28;33.42;;;3.20;95.90;;;;;;4993184;28;20402;-82
2021/03/10 04:48:20;;;;;;;64.28;32.05;;;3.20;96.00;;;;;;4991474;28;20478;-82
2021/03/10 04:50:45;;;;;;;67.22;30.83;;;3.20;96.00;;;;;;4993924;28;20419;-82
2021/03/10 04:53:11;;;;;;;60.45;29.42;;;3.20;95.90;;;;;;5008031;28;20405;-82
2021/03/10 04:55:37;;;;;;;64.77;29.67;;;3.20;95.80;;;;;;4993215;28;20481;-82
2021/03/10 04:58:03;;;;;;;64.70;29.77;;;3.20;95.70;;;;;;4992003;28;20390;-82
2021/03/10 05:00:28;;;;;;;66.68;31.20;;;3.20;95.70;;;;;;4991893;28;20796;-82
2021/03/10 05:02:54;;;;;;;61.15;30.05;;;3.20;95.80;;;;;;4992571;28;20387;-82
2021/03/10 05:05:20;;;;;;;65.55;30.98;;;3.20;95.80;;;;;;4992824;28;20390;-81
2021/03/10 05:07:45;;;;;;;62.22;29.77;;;3.10;95.80;;;;;;4992405;28;20410;-82
2021/03/10 05:10:12;;;;;;;61.95;30.02;;;3.20;95.80;;;;;;4991127;28;20489;-82
2021/03/10 05:12:38;;;;;;;59.70;30.00;;;3.10;95.80;;;;;;4992656;28;20466;-82
2021/03/10 05:15:06;;;;;;;66.65;30.83;;;3.10;95.60;;;;;;4992588;28;20578;-82
2021/03/10 05:17:32;;;;;;;65.83;29.90;;;3.10;95.80;;;;;;4991918;28;20383;-82
2021/03/10 05:19:58;;;;;;;65.15;30.23;;;3.10;95.70;;;;;;4992136;28;20798;-82
2021/03/10 05:22:24;;;;;;;61.67;30.83;;;3.10;95.80;;;;;;4992159;28;20437;-82
2021/03/10 05:24:50;;;;;;;59.20;29.00;;;3.00;95.70;;;;;;4992012;28;20380;-82
2021/03/10 05:27:16;;;;;;;60.50;29.55;;;3.00;95.70;;;;;;4990597;28;20409;-82
2021/03/10 05:29:42;;;;;;;59.40;29.00;;;3.00;95.50;;;;;;4992203;28;20439;-82
2021/03/10 05:32:11;;;;;;;53.10;27.25;;;3.00;95.60;;;;;;4990568;28;20473;-82
2021/03/10 05:34:37;;;;;;;58.03;29.13;;;3.00;95.60;;;;;;4992339;28;20402;-82
2021/03/10 05:37:03;;;;;;;56.40;26.83;;;2.90;95.50;;;;;;4991768;28;20407;-82
2021/03/10 05:39:30;;;;;;;51.33;26.60;;;2.90;95.40;;;;;;4992380;28;20371;-82
2021/03/10 05:41:58;;;;;;;52.72;26.80;;;2.90;95.30;;;;;;4991822;28;20417;-82
2021/03/10 05:44:25;;;;;;;49.22;25.50;;;2.90;95.30;;;;;;4992201;28;20429;-82
2021/03/10 05:46:53;;;;;;;49.60;26.17;;;2.90;95.10;;;;;;4990027;28;20446;-82
2021/03/10 05:49:19;;;;;;;53.92;27.27;;;2.90;95.20;;;;;;4990703;28;20441;-82
2021/03/10 05:51:44;;;;;;;55.70;27.05;;;2.90;95.00;;;;;;4990418;28;20738;-82
2021/03/10 05:54:13;;;;;;;49.65;25.15;;;2.90;95.20;;;;;;4992136;28;20390;-82
2021/03/10 05:56:42;;;;;;;51.88;26.45;;;2.90;95.10;;;;;;4991284;28;20414;-82
2021/03/10 05:59:07;;;;;;;49.33;25.48;;;2.90;95.30;;;;;;4991783;28;20715;-82
2021/03/10 06:01:33;;;;;;;49.47;24.73;;;2.80;95.10;;;;;;4991947;28;20415;-82
2021/03/10 06:04:05;;;;;;;45.13;24.30;;;2.80;95.00;;;;;;4991531;28;20379;-82
2021/03/10 06:06:36;;;;;;;49.05;26.08;;;2.90;95.00;;;;;;4989960;28;20723;-82
2021/03/10 06:09:13;;;;;;;48.42;24.65;;;2.90;95.30;;;;;;4990074;28;20458;-82
2021/03/10 06:11:39;;;;;;;44.70;24.67;;;2.90;95.30;;;;;;5001905;28;20433;-82
2021/03/10 06:14:17;;;;;;;47.60;25.10;;;2.90;95.10;;;;;;5010583;28;20400;-82
2021/03/10 06:16:45;;;;;;;44.97;25.10;;;2.90;94.90;;;;;;5009614;28;20447;-82
2021/03/10 06:19:11;;;;;;;48.22;24.52;;;2.90;94.90;;;;;;5009560;28;20936;-82
2021/03/10 06:21:47;;;;;;;46.10;23.20;;;2.90;95.20;;;;;;5009386;28;20446;-81
2021/03/10 06:24:15;;;;;;;45.85;24.80;;;2.90;94.90;;;;;;5010827;28;20436;-82
2021/03/10 06:26:52;;;;;;;45.30;24.60;;;2.90;95.00;;;;;;5010519;28;20528;-82
2021/03/10 06:29:18;;;;;;;42.00;23.30;;;2.90;95.00;;;;;;5009435;28;20469;-82
2021/03/10 06:31:44;;;;;;;43.73;24.13;;;2.90;95.10;;;;;;5005395;28;20379;-81
2021/03/10 06:34:14;;;;;;;39.57;22.70;;;2.90;95.10;;;;;;4991310;28;20379;-82
2021/03/10 06:36:49;;;;;;;44.10;23.65;;;3.00;95.10;;;;;;5005643;28;20421;-82
2021/03/10 06:39:26;;;;;;;42.00;23.27;;;3.00;95.00;;;;;;4989711;28;20444;-82
2021/03/10 06:41:53;;;;;;;47.33;24.40;;;3.10;94.90;;;;;;4989737;28;20425;-82
2021/03/10 06:44:21;;;;;;;45.35;23.55;;;3.10;94.90;;;;;;4989506;28;20401;-82
2021/03/10 06:46:54;;;;;;;43.50;24.30;;;3.10;94.70;;;;;;5005838;28;20965;-82
2021/03/10 06:49:20;;;;;;;45.60;24.08;;;3.20;94.80;;;;;;4990962;28;20414;-81
2021/03/10 06:51:57;;;;;;;43.67;24.42;;;3.20;94.90;;;;;;4989501;28;20421;-84
2021/03/10 06:54:24;;;;;;;45.63;23.58;;;3.30;94.80;;;;;;4991235;28;20409;-82
2021/03/10 06:57:06;;;;;;;41.63;23.65;;;3.30;94.70;;;;;;4990627;28;20448;-82
2021/03/10 06:59:42;;;;;;;43.77;24.30;;;3.40;94.60;;;;;;4993350;28;20442;-81
2021/03/10 07:02:19;;;;;;;41.08;23.13;;;3.40;94.50;;;;;;4996249;28;20411;-82
2021/03/10 07:04:47;;;;;;;39.35;23.10;;;3.40;94.20;;;;;;5006214;28;20437;-82
2021/03/10 07:07:16;;;;;;;38.60;21.98;;;3.50;94.30;;;;;;4991775;28;20467;-82
2021/03/10 07:09:42;;;;;;;40.92;22.65;;;3.50;94.10;;;;;;5004676;28;20438;-82
2021/03/10 07:12:09;;;;;;;38.03;21.27;;;3.50;94.10;;;;;;5011457;28;20782;-81
2021/03/10 07:14:36;;;;;;;39.08;21.98;;;3.50;94.10;;;;;;5013359;28;20389;-82
2021/03/10 07:17:05;;;;;;;38.15;22.50;;;3.60;93.90;;;;;;5012865;28;20396;-82
2021/03/10 07:19:30;;;;;;;36.90;21.95;;;3.70;93.90;;;;;;5012315;28;20423;-81
2021/03/10 07:22:05;;;;;;;38.38;21.83;;;3.70;93.90;;;;;;5013126;28;20377;-82
2021/03/10 07:24:39;;;;;;;37.58;21.10;;;3.80;93.30;;;;;;5012138;28;20808;-82
2021/03/10 07:27:06;;;;;;;41.03;22.35;;;3.90;92.80;;;;;;5011573;28;20831;-81
2021/03/10 07:29:37;;;;;;;38.38;20.85;;;3.90;93.30;;;;;;5011391;28;20496;-82
2021/03/10 07:32:05;;;;;;;34.90;20.77;;;3.90;92.60;;;;;;5012058;28;20386;-82
2021/03/10 07:34:32;;;;;;;40.92;23.25;;;3.90;92.70;;;;;;4999715;28;20476;-82
2021/03/10 07:36:57;;;;;;;37.28;20.52;;;3.90;93.00;;;;;;5012567;28;20391;-82
2021/03/10 07:39:27;;;;;;;39.93;21.33;;;4.00;92.70;;;;;;5010963;28;20475;-82
2021/03/10 07:41:53;;;;;;;32.03;19.05;;;4.00;92.80;;;;;;5012609;28;20406;-82
2021/03/10 07:44:22;;;;;;;39.00;20.70;;;4.10;92.70;;;;;;5012178;28;20419;-82
2021/03/10 07:47:01;;;;;;;33.30;19.48;;;4.10;92.50;;;;;;5010592;28;20980;-82
2021/03/10 07:49:27;;;;;;;33.08;19.00;;;4.10;92.10;;;;;;5011261;28;20408;-81
2021/03/10 07:52:14;;;;;;;32.27;18.73;;;4.10;92.10;;;;;;5027195;28;20396;-81
2021/03/10 07:54:41;;;;;;;32.60;18.35;;;4.10;91.90;;;;;;5010848;28;20800;-82
2021/03/10 07:57:16;;;;;;;37.10;19.95;;;4.10;91.60;;;;;;4990734;28;20921;-82
2021/03/10 07:59:56;;;;;;;32.45;19.02;;;4.20;92.00;;;;;;4992554;28;20394;-82
2021/03/10 08:02:24;;;;;;;34.22;19.25;;;4.30;92.00;;;;;;4992415;28;20415;-82
2021/03/10 08:04:53;;;;;;;35.70;19.65;;;4.30;91.90;;;;;;4991028;28;20880;-82
2021/03/10 08:07:26;;;;;;;35.20;19.10;;;4.40;91.90;;;;;;4991736;28;20402;-82
2021/03/10 08:09:53;;;;;;;31.70;17.60;;;4.40;92.00;;;;;;4990652;28;20503;-82
2021/03/10 08:12:30;;;;;;;32.88;18.58;;;4.40;91.30;;;;;;4990755;28;20440;-81
2021/03/10 08:14:56;;;;;;;31.58;18.92;;;4.40;91.60;;;;;;4992493;28;20401;-82
2021/03/10 08:17:23;;;;;;;32.67;19.20;;;4.40;91.10;;;;;;4988898;28;20402;-82
2021/03/10 08:19:54;;;;;;;36.83;18.95;;;4.50;91.40;;;;;;4990702;28;20930;-82
2021/03/10 08:22:21;;;;;;;29.75;17.35;;;4.50;91.00;;;;;;4992261;28;20413;-81
2021/03/10 08:24:46;;;;;;;32.50;19.10;;;4.60;90.80;;;;;;4990558;28;20394;-82
2021/03/10 08:27:12;;;;;;;36.47;19.73;;;4.60;90.40;;;;;;4991554;28;20417;-82
2021/03/10 08:29:48;;;;;;;31.45;17.95;;;4.60;90.80;;;;;;4991786;28;20402;-82
2021/03/10 08:32:28;;;;;;;35.80;18.80;;;4.70;90.20;;;;;;4991721;28;20511;-82
2021/03/10 08:35:03;;;;;;;35.00;18.50;;;4.80;89.70;;;;;;4990458;28;20751;-81
2021/03/10 08:37:28;;;;;;;32.63;19.63;;;4.90;90.30;;;;;;4990418;28;20497;-82
2021/03/10 08:39:54;;;;;;;34.35;19.45;;;4.90;90.50;;;;;;4992010;28;20461;-82
2021/03/10 08:42:21;;;;;;;38.33;20.65;;;5.00;90.20;;;;;;4991696;28;20394;-81
2021/03/10 08:44:48;;;;;;;34.97;19.00;;;5.00;90.10;;;;;;4997853;28;20728;-81
2021/03/10 08:47:16;;;;;;;39.17;20.35;;;5.10;89.20;;;;;;5010996;28;20492;-82
2021/03/10 08:49:44;;;;;;;36.13;19.75;;;5.10;90.00;;;;;;5010060;28;20463;-81
2021/03/10 08:52:15;;;;;;;36.30;19.98;;;5.20;90.10;;;;;;5009710;28;20492;-81
2021/03/10 08:55:00;;;;;;;35.85;20.27;;;5.20;88.70;;;;;;5011223;28;20399;-82
2021/03/10 08:57:31;;;;;;;41.03;21.17;;;5.30;89.40;;;;;;5009419;28;20401;-82
2021/03/10 08:59:57;;;;;;;40.38;21.40;;;5.40;88.30;;;;;;5009624;28;20400;-82
2021/03/10 09:02:28;;;;;;;39.70;21.88;;;5.40;89.10;;;;;;5009777;28;20476;-82
2021/03/10 09:04:54;;;;;;;41.53;21.73;;;5.40;88.80;;;;;;5010917;28;20474;-82
2021/03/10 09:07:20;;;;;;;44.00;23.88;;;5.50;88.90;;;;;;5010571;28;20416;-82
2021/03/10 09:09:47;;;;;;;46.05;23.20;;;5.40;87.90;;;;;;5009349;28;20463;-81
2021/03/10 09:12:14;;;;;;;44.22;23.13;;;5.50;87.80;;;;;;5011089;28;20381;-82
2021/03/10 09:14:41;;;;;;;43.13;23.50;;;5.60;88.30;;;;;;5000605;28;20906;-82
2021/03/10 09:17:08;;;;;;;46.70;23.85;;;5.70;87.90;;;;;;4997830;28;20393;-82
2021/03/10 09:19:47;;;;;;;47.57;24.60;;;5.70;87.60;;;;;;5031566;28;20754;-82
2021/03/10 09:22:18;;;;;;;48.50;25.55;;;5.80;88.80;;;;;;5007834;28;20421;-82
2021/03/10 09:24:55;;;;;;;50.35;25.58;;;5.90;88.10;;;;;;5009193;28;20392;-82
2021/03/10 09:27:22;;;;;;;49.47;26.20;;;6.00;88.50;;;;;;4990980;28;20417;-82
2021/03/10 09:29:52;;;;;;;56.33;26.40;;;6.10;87.10;;;;;;4990035;28;20422;-82
2021/03/10 09:32:18;;;;;;;56.22;28.02;;;6.00;86.90;;;;;;4991520;28;20490;-82
2021/03/10 09:34:48;;;;;;;47.55;25.50;;;6.10;88.10;;;;;;5001923;28;20824;-82
2021/03/10 09:37:14;;;;;;;54.85;27.25;;;6.10;86.80;;;;;;4998934;28;20447;-82
2021/03/10 09:39:51;;;;;;;53.33;26.60;;;6.20;87.80;;;;;;5000761;28;20382;-82
2021/03/10 09:42:17;;;;;;;60.70;28.95;;;6.20;86.60;;;;;;4998609;28;20740;-81
2021/03/10 09:44:51;;;;;;;52.50;27.73;;;6.30;87.10;;;;;;5001325;28;20384;-81
2021/03/10 09:47:22;;;;;;;47.37;25.83;;;6.40;86.90;;;;;;5007549;28;20936;-82
2021/03/10 09:49:58;;;;;;;52.42;27.35;;;6.20;86.40;;;;;;5009671;28;20455;-82
2021/03/10 09:52:31;;;;;;;56.42;28.08;;;6.40;86.40;;;;;;5010605;28;20754;-82
2021/03/10 09:54:57;;;;;;;56.38;28.30;;;6.40;86.10;;;;;;5009335;28;20454;-82
2021/03/10 09:57:30;;;;;;;55.70;29.80;;;6.40;86.60;;;;;;5009224;28;20397;-82
2021/03/10 09:59:58;;;;;;;56.43;27.57;;;6.60;85.40;;;;;;5009426;28;20492;-82
2021/03/10 10:02:26;;;;;;;54.05;26.08;;;6.60;84.60;;;;;;5010368;28;20473;-82
2021/03/10 10:04:57;;;;;;;51.92;27.90;;;6.60;84.30;;;;;;5009290;28;21054;-82
2021/03/10 10:07:24;;;;;;;53.50;25.85;;;6.80;85.50;;;;;;5008286;28;20898;-82
2021/03/10 10:09:51;;;;;;;51.58;27.90;;;6.70;84.50;;;;;;5010381;28;20447;-81
2021/03/10 10:12:16;;;;;;;52.67;27.02;;;6.90;84.90;;;;;;5008717;28;20435;-82
2021/03/10 10:14:42;;;;;;;54.73;27.63;;;7.00;84.10;;;;;;5009032;28;20417;-82
2021/03/10 10:17:08;;;;;;;53.23;27.20;;;6.80;83.80;;;;;;5009564;28;20399;-82
2021/03/10 10:19:33;;;;;;;53.00;27.40;;;7.10;84.20;;;;;;5009090;28;20385;-83
2021/03/10 10:21:59;;;;;;;53.80;27.50;;;7.20;83.50;;;;;;5003194;28;20391;-82
2021/03/10 10:24:24;;;;;;;59.37;27.27;;;7.20;83.90;;;;;;4989066;28;20514;-82
2021/03/10 10:26:50;;;;;;;51.63;26.97;;;7.40;83.10;;;;;;4989912;28;20425;-82
2021/03/10 10:29:16;;;;;;;59.33;28.00;;;7.60;81.90;;;;;;4990271;28;20410;-82
2021/03/10 10:31:42;;;;;;;53.73;27.13;;;7.70;82.20;;;;;;4990873;28;20473;-82
2021/03/10 10:34:07;;;;;;;51.63;26.93;;;7.80;81.80;;;;;;4989012;28;20395;-82
2021/03/10 10:36:33;;;;;;;49.10;25.48;;;7.80;81.60;;;;;;4988721;28;20412;-82
2021/03/10 10:38:59;;;;;;;51.08;27.73;;;7.70;81.50;;;;;;4989997;28;20986;-82
2021/03/10 10:41:24;;;;;;;49.88;27.52;;;7.80;81.20;;;;;;4989297;28;20391;-82
2021/03/10 10:43:50;;;;;;;49.60;26.93;;;7.90;80.80;;;;;;4996814;28;20385;-82
2021/03/10 10:46:15;;;;;;;55.20;25.83;;;7.90;80.20;;;;;;4988907;28;20413;-83
2021/03/10 10:48:41;;;;;;;46.43;24.67;;;7.80;79.90;;;;;;4987560;28;20484;-82
2021/03/10 10:51:06;;;;;;;50.03;25.73;;;7.80;79.70;;;;;;4988762;28;20402;-82
2021/03/10 10:53:32;;;;;;;47.47;25.42;;;7.70;80.60;;;;;;4988832;28;20445;-82
2021/03/10 10:55:57;;;;;;;46.67;24.77;;;7.80;79.60;;;;;;4990172;28;20386;-83
2021/03/10 10:58:23;;;;;;;41.25;22.55;;;7.80;80.20;;;;;;4989534;28;20382;-81
2021/03/10 11:00:49;;;;;;;46.13;23.48;;;7.90;77.80;;;;;;4993767;28;20782;-82
2021/03/10 11:03:14;;;;;;;43.33;22.30;;;7.90;78.60;;;;;;4999365;28;20891;-81
2021/03/10 11:05:40;;;;;;;42.13;22.33;;;8.00;77.40;;;;;;5000097;28;20924;-82
2021/03/10 11:08:06;;;;;;;40.90;21.42;;;8.00;77.30;;;;;;4997402;28;20516;-81
2021/03/10 11:10:32;;;;;;;44.72;22.55;;;8.00;78.20;;;;;;4997748;28;20382;-83
2021/03/10 11:12:57;;;;;;;43.58;22.85;;;8.20;78.00;;;;;;4988542;28;20395;-82
2021/03/10 11:15:23;;;;;;;41.58;21.60;;;8.10;77.50;;;;;;4989480;28;20386;-82
2021/03/10 11:17:48;;;;;;;43.75;20.95;;;8.10;77.20;;;;;;4988272;28;20474;-82
2021/03/10 11:20:14;;;;;;;43.17;20.92;;;8.10;77.10;;;;;;4989920;28;20382;-82
2021/03/10 11:22:40;;;;;;;42.25;23.00;;;8.30;77.20;;;;;;4989970;28;20406;-82
2021/03/10 11:25:10;;;;;;;41.50;20.83;;;8.50;77.70;;;;;;4988121;28;20403;-82
2021/03/10 11:27:36;;;;;;;39.63;20.80;;;8.30;76.20;;;;;;4987600;28;20517;-82
2021/03/10 11:30:07;;;;;;;37.95;20.63;;;8.40;76.40;;;;;;4988359;28;20903;-83
2021/03/10 11:32:32;;;;;;;36.50;20.50;;;8.70;77.20;;;;;;4989587;28;20389;-82
2021/03/10 11:34:58;;;;;;;34.67;19.98;;;8.90;75.40;;;;;;4988475;28;20391;-82
2021/03/10 11:37:24;;;;;;;36.47;19.85;;;9.10;75.30;;;;;;4987711;28;20441;-82
2021/03/10 11:39:49;;;;;;;36.55;19.80;;;9.10;74.60;;;;;;4988511;28;20399;-83
2021/03/10 11:42:15;;;;;;;35.80;19.05;;;9.10;73.40;;;;;;4988210;28;20453;-83
2021/03/10 11:44:41;;;;;;;32.75;18.10;;;8.90;74.60;;;;;;4988666;28;20898;-83
2021/03/10 11:47:06;;;;;;;36.93;17.13;;;8.90;73.00;;;;;;4990197;28;20507;-82
2021/03/10 11:49:32;;;;;;;28.37;14.27;;;9.20;74.10;;;;;;4993833;28;20399;-82
2021/03/10 11:51:57;;;;;;;24.30;13.03;;;9.40;71.20;;;;;;4991142;28;20741;-83
2021/03/10 11:54:24;;;;;;;25.83;13.40;;;9.40;68.30;;;;;;4992176;28;20548;-82
2021/03/10 11:56:50;;;;;;;25.00;14.15;;;9.40;68.70;;;;;;4995153;28;20404;-81
2021/03/10 11:59:15;;;;;;;24.53;13.47;;;9.10;68.60;;;;;;4993123;28;20386;-82
2021/03/10 12:01:41;;;;;;;24.87;14.13;;;9.20;67.60;;;;;;5008378;28;20413;-82
2021/03/10 12:04:06;;;;;;;26.30;15.23;;;9.00;70.40;;;;;;4991515;28;20942;-82
2021/03/10 12:06:32;;;;;;;22.92;13.48;;;9.10;69.70;;;;;;4992717;28;20768;-82
2021/03/10 12:08:58;;;;;;;28.55;14.48;;;9.10;69.40;;;;;;4992782;28;20404;-82
2021/03/10 12:11:23;;;;;;;26.63;15.05;;;9.20;70.10;;;;;;4998666;28;20389;-82
2021/03/10 12:13:49;;;;;;;28.50;14.98;;;9.30;69.70;;;;;;4991422;28;20387;-82
2021/03/10 12:16:15;;;;;;;31.08;14.88;;;9.40;68.90;;;;;;4992950;28;20409;-83
2021/03/10 12:18:40;;;;;;;25.83;14.53;;;9.60;69.80;;;;;;4990528;28;20402;-83
2021/03/10 12:21:06;;;;;;;27.00;14.30;;;9.40;68.80;;;;;;4992857;28;20390;-83
2021/03/10 12:23:34;;;;;;;30.02;13.52;;;9.50;70.00;;;;;;4992806;28;20387;-82
2021/03/10 12:26:00;;;;;;;25.15;11.98;;;9.40;70.00;;;;;;4992947;28;20410;-80
2021/03/10 12:28:25;;;;;;;22.13;12.00;;;9.50;66.70;;;;;;4991969;28;20401;-81
2021/03/10 12:30:51;;;;;;;21.05;11.80;;;9.60;65.10;;;;;;4991051;28;20745;-81
2021/03/10 12:33:17;;;;;;;20.77;11.57;;;9.50;66.70;;;;;;5007627;28;20394;-80
2021/03/10 12:35:42;;;;;;;21.35;11.38;;;9.40;65.80;;;;;;4991940;28;20405;-80
2021/03/10 12:38:08;;;;;;;20.63;11.30;;;9.50;63.50;;;;;;4991143;28;20844;-80